Time;durP1;ratioP1;P1;durP2;ratioP2;P2;SDS_P1;SDS_P2;PMS_P1;PMS_P2;Temp;Humidity;BMP_temperature;BMP_pressure;BME280_temperature;BME280_humidity;BME280_pressure;Samples;Min_cycle;Max_cycle;Signal;HPM_P1;HPM_P2
2023/09/13 00:01:50;;;;;;;6.13;2.70;;;18.30;99.90;;;;;;5057731;28;20490;-56
2023/09/13 00:04:16;;;;;;;8.65;2.58;;;18.20;99.90;;;;;;5060181;28;20060;-58
2023/09/13 00:06:42;;;;;;;6.97;2.80;;;18.20;99.90;;;;;;5039499;28;20535;-57
2023/09/13 00:09:08;;;;;;;6.00;2.60;;;18.20;99.90;;;;;;5054297;28;20056;-57
2023/09/13 00:11:35;;;;;;;4.57;1.77;;;18.20;99.90;;;;;;5053447;28;20048;-57
2023/09/13 00:14:01;;;;;;;4.10;2.13;;;18.20;99.90;;;;;;5059627;28;20087;-57
2023/09/13 00:16:27;;;;;;;5.65;2.25;;;18.10;99.90;;;;;;5057698;28;20071;-57
2023/09/13 00:18:53;;;;;;;7.60;1.90;;;18.10;99.90;;;;;;5055096;28;20056;-57
2023/09/13 00:21:20;;;;;;;3.33;2.00;;;18.10;99.90;;;;;;5056227;28;20061;-58
2023/09/13 00:23:46;;;;;;;9.75;3.25;;;18.10;99.90;;;;;;5052688;28;20736;-57
2023/09/13 00:26:14;;;;;;;7.10;2.75;;;18.10;99.90;;;;;;5063798;28;20090;-57
2023/09/13 00:28:39;;;;;;;6.05;2.97;;;18.00;99.90;;;;;;5060412;28;20403;-59
2023/09/13 00:31:08;;;;;;;6.13;2.80;;;18.00;99.90;;;;;;5041677;28;20510;-57
2023/09/13 00:33:34;;;;;;;6.20;3.20;;;17.90;99.90;;;;;;5061318;28;20057;-57
2023/09/13 00:36:00;;;;;;;9.18;3.85;;;18.00;99.90;;;;;;5062828;28;20063;-60
2023/09/13 00:38:26;;;;;;;12.05;4.07;;;17.90;99.90;;;;;;5061706;28;20114;-58
2023/09/13 00:40:52;;;;;;;10.35;4.75;;;17.80;99.90;;;;;;5058223;28;20048;-57
2023/09/13 00:43:17;;;;;;;9.80;3.38;;;17.80;99.90;;;;;;5061860;28;20048;-58
2023/09/13 00:45:45;;;;;;;7.07;3.75;;;17.70;99.90;;;;;;5061086;28;20787;-60
2023/09/13 00:48:11;;;;;;;8.13;4.55;;;17.70;99.90;;;;;;5063445;28;20071;-59
2023/09/13 00:50:37;;;;;;;7.05;3.88;;;17.70;99.90;;;;;;5060706;28;20581;-58
2023/09/13 00:53:04;;;;;;;10.43;3.65;;;17.70;99.90;;;;;;5062426;28;20167;-57
2023/09/13 00:55:31;;;;;;;10.32;4.50;;;17.70;99.90;;;;;;5051984;28;20609;-57
2023/09/13 00:57:57;;;;;;;6.78;3.55;;;17.70;99.90;;;;;;5037416;28;20710;-58
2023/09/13 01:00:27;;;;;;;13.32;5.57;;;17.70;99.90;;;;;;5062874;28;20060;-60
2023/09/13 01:02:53;;;;;;;9.18;3.40;;;17.70;99.90;;;;;;5060614;28;20515;-58
2023/09/13 01:05:19;;;;;;;6.32;2.47;;;17.70;99.90;;;;;;5063140;28;20087;-59
2023/09/13 01:07:47;;;;;;;7.47;3.10;;;17.70;99.90;;;;;;5059828;28;20056;-57
2023/09/13 01:10:13;;;;;;;15.23;5.53;;;17.70;99.90;;;;;;5062970;28;20533;-58
2023/09/13 01:12:39;;;;;;;4.97;1.90;;;17.70;99.90;;;;;;5054097;28;20053;-61
2023/09/13 01:15:06;;;;;;;2.65;1.63;;;17.70;99.90;;;;;;5048295;28;20060;-57
2023/09/13 01:17:56;;;;;;;8.50;3.90;;;17.70;99.90;;;;;;5060333;28;20064;-57
2023/09/13 01:21:05;;;;;;;6.53;2.78;;;17.70;99.90;;;;;;5060758;28;20502;-58
2023/09/13 01:23:46;;;;;;;9.73;2.03;;;17.70;99.90;;;;;;5058319;28;20056;-56
2023/09/13 01:26:24;;;;;;;4.97;1.63;;;17.70;99.90;;;;;;5062569;28;20078;-57
2023/09/13 01:28:53;;;;;;;5.07;2.13;;;17.70;99.90;;;;;;5054759;28;20247;-57
2023/09/13 01:31:21;;;;;;;5.45;1.60;;;17.70;99.90;;;;;;5049458;28;20060;-57
2023/09/13 01:33:50;;;;;;;2.85;1.80;;;17.60;99.90;;;;;;5060558;28;20075;-61
2023/09/13 01:36:16;;;;;;;4.78;1.75;;;17.60;99.90;;;;;;5039726;28;20045;-57
2023/09/13 01:38:41;;;;;;;5.43;2.30;;;17.60;99.90;;;;;;5057087;28;20583;-57
2023/09/13 01:41:13;;;;;;;4.25;1.73;;;17.60;99.90;;;;;;5059505;28;20087;-57
2023/09/13 01:43:41;;;;;;;5.55;2.30;;;17.60;99.90;;;;;;5039855;28;20071;-57
2023/09/13 01:46:08;;;;;;;5.18;1.90;;;17.50;99.90;;;;;;5048673;28;20060;-58
2023/09/13 01:48:36;;;;;;;5.80;2.28;;;17.50;99.90;;;;;;5059714;28;20056;-60
2023/09/13 01:51:02;;;;;;;7.50;1.75;;;17.40;99.90;;;;;;5059484;28;20080;-57
2023/09/13 01:53:29;;;;;;;5.65;2.58;;;17.40;99.90;;;;;;5060471;28;20067;-58
2023/09/13 01:55:55;;;;;;;7.32;2.40;;;17.30;99.90;;;;;;5061536;28;20117;-57
2023/09/13 01:58:45;;;;;;;8.65;2.70;;;17.30;99.90;;;;;;5061867;28;20067;-58
2023/09/13 02:01:11;;;;;;;8.13;2.45;;;17.30;99.90;;;;;;5058251;28;20087;-58
2023/09/13 02:03:37;;;;;;;5.07;2.03;;;17.30;99.90;;;;;;5058103;28;20057;-57
2023/09/13 02:06:02;;;;;;;6.30;2.85;;;17.30;99.90;;;;;;5061025;28;20049;-57
2023/09/13 02:08:28;;;;;;;6.45;2.70;;;17.20;99.90;;;;;;5060752;28;20061;-57
2023/09/13 02:10:54;;;;;;;3.22;2.20;;;17.20;99.90;;;;;;5058195;28;20155;-58
2023/09/13 02:13:19;;;;;;;7.55;2.50;;;17.20;99.90;;;;;;5061106;28;20060;-57
2023/09/13 02:15:45;;;;;;;9.65;2.83;;;17.20;99.90;;;;;;5059143;28;20723;-57
2023/09/13 02:18:11;;;;;;;5.20;2.22;;;17.20;99.90;;;;;;5055204;28;20056;-58
2023/09/13 02:20:36;;;;;;;4.63;1.92;;;17.20;99.90;;;;;;5047901;28;20048;-57
2023/09/13 02:23:02;;;;;;;7.50;2.13;;;17.20;99.90;;;;;;5039715;28;20059;-57
2023/09/13 02:25:28;;;;;;;3.88;2.05;;;17.20;99.90;;;;;;5059550;28;20517;-58
2023/09/13 02:27:53;;;;;;;3.85;2.67;;;17.10;99.90;;;;;;5060201;28;20125;-59
2023/09/13 02:30:19;;;;;;;8.35;3.30;;;17.10;99.90;;;;;;5061389;28;20072;-57
2023/09/13 02:32:45;;;;;;;7.40;2.50;;;17.10;99.90;;;;;;5044816;28;20088;-57
2023/09/13 02:35:11;;;;;;;7.43;2.10;;;17.10;99.90;;;;;;5055661;28;20056;-57
2023/09/13 02:37:37;;;;;;;3.28;1.27;;;17.10;99.90;;;;;;5058535;28;20062;-57
2023/09/13 02:40:05;;;;;;;7.10;2.42;;;17.00;99.90;;;;;;5043105;28;20052;-57
2023/09/13 02:42:31;;;;;;;6.05;1.92;;;17.10;99.90;;;;;;5052897;28;20060;-57
2023/09/13 02:44:57;;;;;;;3.42;1.90;;;17.10;99.90;;;;;;5060589;28;20075;-57
2023/09/13 02:47:25;;;;;;;4.00;1.90;;;17.10;99.90;;;;;;5060541;28;20072;-58
2023/09/13 02:49:51;;;;;;;4.38;1.67;;;17.00;99.90;;;;;;5020470;28;1092132;-58
2023/09/13 02:52:24;;;;;;;4.10;1.73;;;17.00;99.90;;;;;;5059900;28;20060;-57
2023/09/13 02:54:50;;;;;;;6.07;1.42;;;17.10;99.90;;;;;;5055018;28;20507;-57
2023/09/13 02:57:15;;;;;;;2.78;1.65;;;17.00;99.90;;;;;;5046853;28;20048;-57
2023/09/13 02:59:41;;;;;;;7.45;2.15;;;17.00;99.90;;;;;;5038249;28;20056;-57
2023/09/13 03:02:07;;;;;;;5.20;1.55;;;17.00;99.90;;;;;;5058744;28;20069;-57
2023/09/13 03:04:32;;;;;;;10.98;2.45;;;17.10;99.90;;;;;;5058064;28;20090;-57
2023/09/13 03:06:58;;;;;;;4.10;2.28;;;17.00;99.90;;;;;;5060657;28;20056;-57
2023/09/13 03:09:25;;;;;;;4.47;1.88;;;17.00;99.90;;;;;;5056989;28;20056;-57
2023/09/13 03:11:50;;;;;;;4.88;1.25;;;17.00;99.90;;;;;;5058861;28;20490;-57
2023/09/13 03:14:16;;;;;;;4.25;1.63;;;17.00;99.90;;;;;;5060199;28;20090;-57
2023/09/13 03:16:42;;;;;;;6.53;1.67;;;17.00;99.90;;;;;;5057531;28;20147;-57
2023/09/13 03:19:07;;;;;;;5.45;1.70;;;17.00;99.90;;;;;;5060320;28;20060;-58
2023/09/13 03:21:33;;;;;;;5.30;1.75;;;17.00;99.90;;;;;;5057062;28;20052;-59
2023/09/13 03:23:59;;;;;;;5.97;1.25;;;17.00;99.90;;;;;;5057374;28;20064;-57
2023/09/13 03:26:26;;;;;;;4.88;2.45;;;17.00;99.90;;;;;;5059156;28;20513;-57
2023/09/13 03:28:53;;;;;;;4.30;1.58;;;17.00;99.90;;;;;;5059141;28;20125;-58
2023/09/13 03:31:24;;;;;;;3.65;0.98;;;17.00;99.90;;;;;;5060182;28;20056;-57
2023/09/13 03:33:51;;;;;;;7.35;1.80;;;17.00;99.90;;;;;;5039315;28;20090;-57
2023/09/13 03:36:17;;;;;;;7.65;1.25;;;17.00;99.90;;;;;;5060799;28;20064;-57
2023/09/13 03:38:44;;;;;;;10.15;1.98;;;17.00;99.90;;;;;;5057947;28;20570;-57
2023/09/13 03:41:24;;;;;;;5.10;2.38;;;17.00;99.90;;;;;;5056963;28;20106;-57
2023/09/13 03:43:51;;;;;;;7.22;1.83;;;17.00;99.90;;;;;;5058840;28;20081;-57
2023/09/13 03:46:16;;;;;;;6.70;1.88;;;17.00;99.90;;;;;;5060413;28;20493;-57
2023/09/13 03:48:42;;;;;;;5.68;1.52;;;17.00;99.90;;;;;;5054381;28;20102;-56
2023/09/13 03:51:08;;;;;;;5.03;1.50;;;16.90;99.90;;;;;;5058758;28;20207;-57
2023/09/13 03:53:35;;;;;;;10.60;2.17;;;16.90;99.90;;;;;;5058787;28;20056;-56
2023/09/13 03:56:02;;;;;;;4.85;1.60;;;16.90;99.90;;;;;;5062691;28;20060;-57
2023/09/13 03:58:28;;;;;;;6.28;2.08;;;16.90;99.90;;;;;;5061348;28;20143;-56
2023/09/13 04:00:55;;;;;;;5.22;1.70;;;16.90;99.90;;;;;;5060116;28;20060;-56
2023/09/13 04:03:25;;;;;;;2.78;1.33;;;16.90;99.90;;;;;;5062107;28;20051;-56
2023/09/13 04:05:52;;;;;;;3.92;1.60;;;16.80;99.90;;;;;;5059923;28;20101;-57
2023/09/13 04:08:17;;;;;;;11.40;2.45;;;16.90;99.90;;;;;;5044485;28;20056;-57
2023/09/13 04:10:43;;;;;;;7.03;1.80;;;16.80;99.90;;;;;;5057491;28;20513;-57
2023/09/13 04:13:09;;;;;;;6.03;1.85;;;16.80;99.90;;;;;;5061976;28;20567;-58
2023/09/13 04:15:34;;;;;;;8.88;1.88;;;16.80;99.90;;;;;;5059856;28;20064;-57
2023/09/13 04:18:00;;;;;;;6.70;2.10;;;16.80;99.90;;;;;;5059060;28;20048;-57
2023/09/13 04:20:26;;;;;;;8.93;3.55;;;16.80;99.90;;;;;;5039248;28;20056;-56
2023/09/13 04:22:52;;;;;;;11.98;2.70;;;16.70;99.90;;;;;;5060785;28;20056;-57
2023/09/13 04:25:18;;;;;;;8.80;2.25;;;16.70;99.90;;;;;;5062175;28;20110;-57
2023/09/13 04:27:47;;;;;;;8.60;2.65;;;16.70;99.90;;;;;;5059741;28;20159;-57
2023/09/13 04:30:14;;;;;;;5.18;2.20;;;16.60;99.90;;;;;;5058467;28;20057;-60
2023/09/13 04:32:40;;;;;;;13.18;3.58;;;16.60;99.90;;;;;;5040236;28;20049;-57
2023/09/13 04:35:07;;;;;;;5.68;2.08;;;16.60;99.90;;;;;;5061346;28;20084;-57
2023/09/13 04:37:33;;;;;;;8.95;2.17;;;16.60;99.90;;;;;;5059449;28;20527;-56
2023/09/13 04:40:00;;;;;;;4.45;1.88;;;16.50;99.90;;;;;;5060287;28;20053;-57
2023/09/13 04:42:26;;;;;;;6.00;1.38;;;16.50;99.90;;;;;;5057382;28;20060;-57
2023/09/13 04:44:51;;;;;;;8.27;2.13;;;16.40;99.90;;;;;;5054098;28;20060;-57
2023/09/13 04:47:18;;;;;;;5.05;1.73;;;16.30;99.90;;;;;;5060769;28;20068;-57
2023/09/13 04:49:43;;;;;;;6.95;1.50;;;16.20;99.90;;;;;;5055005;28;20052;-56
2023/09/13 04:52:10;;;;;;;6.72;2.03;;;16.20;99.90;;;;;;5051088;28;20114;-57
2023/09/13 04:54:36;;;;;;;5.20;1.45;;;16.10;99.90;;;;;;5048678;28;20098;-57
2023/09/13 04:57:05;;;;;;;5.00;1.60;;;16.10;99.90;;;;;;5061268;28;20056;-56
2023/09/13 04:59:45;;;;;;;2.17;1.15;;;16.00;99.90;;;;;;5059598;28;20139;-56
2023/09/13 05:02:11;;;;;;;7.78;2.00;;;16.00;99.90;;;;;;5060572;28;20494;-57
2023/09/13 05:04:38;;;;;;;5.05;1.67;;;15.90;99.90;;;;;;5058208;28;20139;-56
2023/09/13 05:07:04;;;;;;;6.03;1.88;;;15.90;99.90;;;;;;5055613;28;20104;-56
2023/09/13 05:09:30;;;;;;;8.20;2.80;;;15.90;99.90;;;;;;5047688;28;20052;-56
2023/09/13 05:11:56;;;;;;;5.10;2.10;;;15.70;99.90;;;;;;5059395;28;20045;-56
2023/09/13 05:14:26;;;;;;;5.43;1.65;;;15.60;99.90;;;;;;5060729;28;20059;-59
2023/09/13 05:16:52;;;;;;;4.45;1.58;;;15.60;99.90;;;;;;5022861;28;20084;-59
2023/09/13 05:21:46;;;;;;;5.07;2.15;;;15.60;99.90;;;;;;5055730;28;20067;-58
2023/09/13 05:24:12;;;;;;;4.72;1.75;;;16.40;99.90;;;;;;5059274;28;20134;-60
2023/09/13 05:26:38;;;;;;;5.82;1.70;;;15.60;99.90;;;;;;5042167;28;20060;-58
2023/09/13 05:29:04;;;;;;;5.57;1.63;;;15.60;99.90;;;;;;5042328;28;20485;-57
2023/09/13 05:31:31;;;;;;;7.00;1.73;;;15.50;99.90;;;;;;5060002;28;20114;-57
2023/09/13 05:33:57;;;;;;;4.32;1.42;;;15.40;99.90;;;;;;5059766;28;20068;-57
2023/09/13 05:36:26;;;;;;;8.68;1.80;;;15.30;99.90;;;;;;5053172;28;20060;-57
2023/09/13 05:38:51;;;;;;;10.35;2.83;;;15.20;99.90;;;;;;5034513;28;21278;-58
2023/09/13 05:41:18;;;;;;;4.88;2.03;;;15.10;99.90;;;;;;5053558;28;20507;-61
2023/09/13 05:43:44;;;;;;;5.57;1.88;;;15.00;99.90;;;;;;5048060;28;20053;-61
2023/09/13 05:46:10;;;;;;;6.93;1.75;;;14.90;99.90;;;;;;5042334;28;20064;-58
2023/09/13 05:48:36;;;;;;;5.90;1.50;;;14.90;99.90;;;;;;5053673;28;20055;-58
2023/09/13 05:51:04;;;;;;;7.38;1.92;;;14.90;99.90;;;;;;5060031;28;20057;-58
2023/09/13 05:53:30;;;;;;;6.25;2.70;;;14.80;99.90;;;;;;5058231;28;20645;-58
2023/09/13 05:55:56;;;;;;;4.78;1.23;;;14.80;99.90;;;;;;5059499;28;20056;-57
2023/09/13 05:58:26;;;;;;;5.32;1.70;;;14.80;99.90;;;;;;5059953;28;20449;-58
2023/09/13 06:00:52;;;;;;;7.60;1.70;;;14.70;99.90;;;;;;5053633;28;20067;-57
2023/09/13 06:03:19;;;;;;;7.03;2.28;;;14.80;99.90;;;;;;5058754;28;20109;-58
2023/09/13 06:05:50;;;;;;;4.40;1.60;;;14.80;99.90;;;;;;5057168;28;20072;-58
2023/09/13 06:08:17;;;;;;;5.38;1.80;;;14.80;99.90;;;;;;5059755;28;20075;-59
2023/09/13 06:10:44;;;;;;;7.85;1.70;;;14.90;99.90;;;;;;5054785;28;20450;-57
2023/09/13 06:13:10;;;;;;;9.20;2.03;;;14.90;99.90;;;;;;5059375;28;20056;-58
2023/09/13 06:15:36;;;;;;;8.63;2.40;;;14.80;99.90;;;;;;5058861;28;20106;-58
2023/09/13 06:18:02;;;;;;;8.05;1.63;;;14.80;99.90;;;;;;5043111;28;20063;-59
2023/09/13 06:20:28;;;;;;;5.85;1.90;;;14.80;99.90;;;;;;5058625;28;20057;-58
2023/09/13 06:22:54;;;;;;;7.32;2.17;;;14.80;99.90;;;;;;5042135;28;20179;-57
2023/09/13 06:25:24;;;;;;;5.70;1.60;;;14.80;99.90;;;;;;5061281;28;20052;-57
2023/09/13 06:27:50;;;;;;;5.85;1.70;;;14.80;99.90;;;;;;5056114;28;20166;-57
2023/09/13 06:30:16;;;;;;;9.07;2.38;;;14.80;99.90;;;;;;5060998;28;20060;-57
2023/09/13 06:32:42;;;;;;;6.00;2.25;;;14.90;99.90;;;;;;5041088;28;20094;-58
2023/09/13 06:35:12;;;;;;;5.80;2.22;;;14.80;99.90;;;;;;5042748;28;20056;-57
2023/09/13 06:37:39;;;;;;;4.43;2.30;;;14.80;99.90;;;;;;5057124;28;20773;-61
2023/09/13 06:40:05;;;;;;;5.85;2.00;;;14.90;99.90;;;;;;5061004;28;20522;-57
2023/09/13 06:42:31;;;;;;;5.78;2.40;;;14.90;99.90;;;;;;5058413;28;20056;-59
2023/09/13 06:44:57;;;;;;;11.00;2.50;;;14.90;99.90;;;;;;5060080;28;20114;-58
2023/09/13 06:47:26;;;;;;;8.25;2.45;;;14.90;99.90;;;;;;5060701;28;20060;-57
2023/09/13 06:49:52;;;;;;;7.53;3.03;;;14.90;99.90;;;;;;5056842;28;20048;-57
2023/09/13 06:52:17;;;;;;;8.82;2.58;;;14.90;99.90;;;;;;5060254;28;20510;-61
2023/09/13 06:54:43;;;;;;;6.50;2.67;;;14.90;99.90;;;;;;5039463;28;20060;-59
2023/09/13 06:57:09;;;;;;;10.90;2.80;;;14.80;99.90;;;;;;5041722;28;20117;-61
2023/09/13 06:59:35;;;;;;;8.90;3.25;;;14.80;99.90;;;;;;5029226;28;20056;-60
2023/09/13 07:02:00;;;;;;;9.60;2.55;;;14.90;99.90;;;;;;5044901;28;20155;-61
2023/09/13 07:04:26;;;;;;;12.45;3.08;;;14.90;99.90;;;;;;5046981;28;20065;-58
2023/09/13 07:06:52;;;;;;;8.20;2.40;;;14.90;99.90;;;;;;5028503;28;20085;-61
2023/09/13 07:09:17;;;;;;;11.13;2.60;;;15.00;99.90;;;;;;5005609;28;1094503;-58
2023/09/13 07:11:43;;;;;;;8.82;3.05;;;15.00;99.90;;;;;;5048521;28;20394;-59
2023/09/13 07:14:09;;;;;;;9.68;2.42;;;15.10;99.90;;;;;;5046677;28;20060;-58
2023/09/13 07:16:34;;;;;;;6.32;2.33;;;15.20;99.90;;;;;;5046193;28;20840;-57
2023/09/13 07:19:02;;;;;;;7.78;2.78;;;15.20;99.90;;;;;;5045123;28;20159;-58
2023/09/13 07:21:29;;;;;;;8.98;2.83;;;15.20;99.90;;;;;;5052363;28;20063;-57
2023/09/13 07:23:55;;;;;;;11.15;2.55;;;15.20;99.90;;;;;;5047745;28;20151;-58
2023/09/13 07:28:46;;;;;;;11.05;2.63;;;15.30;99.90;;;;;;5055837;28;20080;-58
2023/09/13 07:31:12;;;;;;;6.45;2.80;;;15.30;99.90;;;;;;5054470;28;20071;-58
2023/09/13 07:33:37;;;;;;;6.63;2.33;;;15.40;99.90;;;;;;5039362;28;20057;-60
2023/09/13 07:36:03;;;;;;;8.77;2.53;;;15.60;99.90;;;;;;5037739;28;20048;-58
2023/09/13 07:38:29;;;;;;;7.28;2.65;;;15.70;99.90;;;;;;5043302;28;20049;-59
2023/09/13 07:40:54;;;;;;;11.30;3.22;;;15.70;99.90;;;;;;5040241;28;20569;-58
2023/09/13 07:45:46;;;;;;;8.15;3.38;;;15.90;99.90;;;;;;5040627;28;20064;-57
2023/09/13 07:48:12;;;;;;;8.07;2.10;;;15.90;99.90;;;;;;5017782;28;20832;-58
2023/09/13 07:50:42;;;;;;;8.90;2.25;;;16.00;99.90;;;;;;5041902;28;20052;-57
2023/09/13 07:53:12;;;;;;;7.85;2.40;;;16.00;99.90;;;;;;5032099;28;20065;-58
2023/09/13 07:55:39;;;;;;;10.07;3.10;;;16.00;99.90;;;;;;5038087;28;20427;-57
2023/09/13 07:58:06;;;;;;;8.40;2.42;;;16.10;99.90;;;;;;5024615;28;20068;-57
2023/09/13 08:00:32;;;;;;;10.93;3.15;;;16.20;99.90;;;;;;5038838;28;20056;-57
2023/09/13 08:03:02;;;;;;;6.25;2.03;;;16.20;99.90;;;;;;5044538;28;20057;-57
2023/09/13 08:05:28;;;;;;;6.75;2.53;;;16.40;99.90;;;;;;5036933;28;20061;-58
2023/09/13 08:07:54;;;;;;;6.40;1.70;;;16.50;99.90;;;;;;5038555;28;20068;-57
2023/09/13 08:12:50;;;;;;;4.07;2.13;;;16.90;99.90;;;;;;5040429;28;20316;-57
2023/09/13 08:15:16;;;;;;;8.80;2.90;;;17.00;99.90;;;;;;5053081;28;20413;-57
2023/09/13 08:17:42;;;;;;;7.75;1.80;;;17.10;99.90;;;;;;5027660;28;20049;-57
2023/09/13 08:20:08;;;;;;;5.00;1.88;;;17.30;99.90;;;;;;5056443;28;20052;-57
2023/09/13 08:22:37;;;;;;;10.68;2.38;;;17.30;99.90;;;;;;5050706;28;20051;-58
2023/09/13 08:25:04;;;;;;;5.18;2.17;;;17.40;99.90;;;;;;5055871;28;20409;-60
2023/09/13 08:27:30;;;;;;;6.82;1.58;;;17.40;99.90;;;;;;5052539;28;20080;-57
2023/09/13 08:29:56;;;;;;;7.50;1.80;;;17.50;99.90;;;;;;5043892;28;20490;-57
2023/09/13 08:34:51;;;;;;;7.50;1.58;;;17.40;99.90;;;;;;5049408;28;20060;-57
2023/09/13 08:37:17;;;;;;;5.43;1.63;;;17.50;99.90;;;;;;5044769;28;20057;-57
2023/09/13 08:39:43;;;;;;;6.47;2.05;;;17.70;99.90;;;;;;5040851;28;20157;-58
2023/09/13 08:42:09;;;;;;;7.00;1.65;;;17.80;99.90;;;;;;5059279;28;20052;-57
2023/09/13 08:44:37;;;;;;;4.13;1.90;;;17.90;99.90;;;;;;5053358;28;20525;-58
2023/09/13 08:47:04;;;;;;;6.05;1.67;;;18.20;99.90;;;;;;5054498;28;20060;-57
2023/09/13 08:49:32;;;;;;;4.80;2.20;;;18.40;99.90;;;;;;5030948;28;20140;-55
2023/09/13 08:51:58;;;;;;;6.50;2.60;;;18.40;99.90;;;;;;5045573;28;20063;-57
2023/09/13 08:54:24;;;;;;;8.52;1.90;;;18.50;99.90;;;;;;5041605;28;20049;-57
2023/09/13 08:56:50;;;;;;;6.20;2.13;;;18.70;99.90;;;;;;5046036;28;20060;-58
2023/09/13 08:59:17;;;;;;;6.70;2.17;;;18.70;99.90;;;;;;5031892;28;20115;-57
2023/09/13 09:01:50;;;;;;;6.65;1.90;;;18.60;99.90;;;;;;5036977;28;20053;-57
2023/09/13 09:04:17;;;;;;;6.45;2.30;;;18.60;99.90;;;;;;5033922;28;20429;-57
2023/09/13 09:06:43;;;;;;;10.27;2.15;;;18.60;99.90;;;;;;5036964;28;20061;-57
2023/09/13 09:09:09;;;;;;;11.40;2.53;;;18.50;99.90;;;;;;5034603;28;20201;-58
2023/09/13 09:11:37;;;;;;;7.13;2.42;;;18.80;99.90;;;;;;5039375;28;20234;-57
2023/09/13 09:14:04;;;;;;;8.10;2.40;;;18.90;99.90;;;;;;5045434;28;20065;-57
2023/09/13 09:16:35;;;;;;;5.30;2.10;;;18.80;99.90;;;;;;5042371;28;20056;-57
2023/09/13 09:19:04;;;;;;;7.65;1.70;;;18.70;99.90;;;;;;5041835;28;20133;-59
2023/09/13 09:21:31;;;;;;;6.28;2.03;;;18.70;99.90;;;;;;5047358;28;20061;-60
2023/09/13 09:23:58;;;;;;;9.27;2.20;;;18.80;99.90;;;;;;5043419;28;20053;-60
2023/09/13 09:26:25;;;;;;;5.85;2.08;;;18.60;99.90;;;;;;5045507;28;20462;-63
2023/09/13 09:28:51;;;;;;;9.55;2.10;;;18.40;99.90;;;;;;5039639;28;21244;-63
2023/09/13 09:31:19;;;;;;;9.02;1.52;;;18.00;99.90;;;;;;5047969;28;20060;-58
2023/09/13 09:33:46;;;;;;;5.10;2.22;;;18.00;99.90;;;;;;5029679;28;20291;-59
2023/09/13 09:36:13;;;;;;;8.18;2.55;;;17.30;99.90;;;;;;5041610;28;20114;-60
2023/09/13 09:38:43;;;;;;;5.22;2.38;;;17.30;99.90;;;;;;5042109;28;20143;-58
2023/09/13 09:41:09;;;;;;;11.48;2.75;;;17.10;99.90;;;;;;5036641;28;20646;-57
2023/09/13 09:43:36;;;;;;;8.23;2.22;;;17.20;99.90;;;;;;5024301;28;20210;-58
2023/09/13 09:46:02;;;;;;;7.15;2.17;;;17.40;99.90;;;;;;5024171;28;20258;-60
2023/09/13 09:48:28;;;;;;;9.68;2.75;;;17.30;99.90;;;;;;5043140;28;20056;-60
2023/09/13 09:50:54;;;;;;;8.68;1.70;;;17.30;99.90;;;;;;5044475;28;20079;-59
2023/09/13 09:55:46;;;;;;;6.25;1.85;;;17.10;99.90;;;;;;5036341;28;20806;-63
2023/09/13 09:58:13;;;;;;;6.85;2.10;;;17.10;99.90;;;;;;5039766;28;20135;-61
2023/09/13 10:00:50;;;;;;;3.97;1.98;;;17.20;99.90;;;;;;5017109;28;20468;-59
2023/09/13 10:03:19;;;;;;;7.60;2.47;;;17.20;99.90;;;;;;5039745;28;20175;-62
2023/09/13 10:05:58;;;;;;;5.45;1.77;;;17.30;99.90;;;;;;5033674;28;20072;-60
2023/09/13 10:08:41;;;;;;;8.98;2.30;;;17.40;99.90;;;;;;5054619;28;20053;-56
2023/09/13 10:11:08;;;;;;;7.05;2.28;;;17.50;99.90;;;;;;5042514;28;20052;-58
2023/09/13 10:13:35;;;;;;;6.65;2.30;;;17.60;99.90;;;;;;5029719;28;20057;-57
2023/09/13 10:16:01;;;;;;;7.25;1.73;;;17.90;99.90;;;;;;5054851;28;20052;-58
2023/09/13 10:18:28;;;;;;;7.25;2.17;;;18.00;99.90;;;;;;5053327;28;20079;-56
2023/09/13 10:20:57;;;;;;;9.90;2.28;;;18.10;99.90;;;;;;5053573;28;20080;-57
2023/09/13 10:23:31;;;;;;;7.85;2.00;;;18.20;99.90;;;;;;5027571;28;20061;-57
2023/09/13 10:25:59;;;;;;;5.78;2.53;;;18.50;99.90;;;;;;5048126;28;20052;-58
2023/09/13 10:28:27;;;;;;;6.28;2.40;;;18.70;99.90;;;;;;5053628;28;20411;-57
2023/09/13 10:30:58;;;;;;;4.55;2.17;;;18.70;99.90;;;;;;5051063;28;20453;-58
2023/09/13 10:33:30;;;;;;;6.07;1.98;;;18.50;99.90;;;;;;5053468;28;20060;-57
2023/09/13 10:35:59;;;;;;;7.10;1.88;;;18.90;99.90;;;;;;5051008;28;20615;-57
2023/09/13 10:38:46;;;;;;;4.68;2.15;;;18.90;99.90;;;;;;5051206;28;20410;-57
2023/09/13 10:41:17;;;;;;;7.53;2.17;;;19.30;99.90;;;;;;5052076;28;20052;-58
2023/09/13 10:43:44;;;;;;;4.60;2.00;;;20.10;99.90;;;;;;5016259;28;20060;-58
2023/09/13 10:46:10;;;;;;;8.45;1.73;;;20.30;99.90;;;;;;5030143;28;20053;-58
2023/09/13 10:48:39;;;;;;;6.35;2.38;;;20.30;99.90;;;;;;5037807;28;20060;-59
2023/09/13 10:51:05;;;;;;;6.28;2.33;;;20.10;99.90;;;;;;5054600;28;20509;-58
2023/09/13 10:53:32;;;;;;;2.75;1.52;;;20.20;99.90;;;;;;5038550;28;20089;-57
2023/09/13 10:55:58;;;;;;;4.60;1.58;;;20.50;99.90;;;;;;5054095;28;20082;-58
2023/09/13 10:58:24;;;;;;;3.15;1.42;;;20.80;99.90;;;;;;5054145;28;20103;-58
2023/09/13 11:00:53;;;;;;;3.42;1.60;;;20.80;99.90;;;;;;5049446;28;20080;-57
2023/09/13 11:03:19;;;;;;;2.58;1.48;;;21.20;99.90;;;;;;5052367;28;20092;-58
2023/09/13 11:05:51;;;;;;;3.47;1.13;;;21.90;99.90;;;;;;5049272;28;20179;-58
2023/09/13 11:10:47;;;;;;;2.72;1.48;;;21.50;99.90;;;;;;5052265;28;20071;-57
2023/09/13 11:13:13;;;;;;;3.40;1.73;;;21.50;99.90;;;;;;5051810;28;20458;-58
2023/09/13 11:15:50;;;;;;;4.13;1.48;;;21.50;99.90;;;;;;5048399;28;20159;-58
2023/09/13 11:18:16;;;;;;;3.40;1.95;;;21.50;99.90;;;;;;5050799;28;20059;-58
2023/09/13 11:20:43;;;;;;;2.17;1.35;;;20.70;99.90;;;;;;5049657;28;20171;-57
2023/09/13 11:23:09;;;;;;;4.32;1.55;;;21.00;99.90;;;;;;5052091;28;20052;-57
2023/09/13 11:25:35;;;;;;;4.43;1.90;;;21.20;99.90;;;;;;5010996;28;1129317;-57
2023/09/13 11:28:24;;;;;;;5.80;2.08;;;21.10;99.90;;;;;;5034714;28;20056;-58
2023/09/13 11:30:51;;;;;;;6.22;1.80;;;21.30;99.90;;;;;;5027733;28;20114;-58
2023/09/13 11:33:18;;;;;;;6.05;1.98;;;21.20;99.90;;;;;;5053946;28;20088;-57
2023/09/13 11:35:44;;;;;;;4.05;1.50;;;21.60;99.90;;;;;;5050559;28;20095;-57
2023/09/13 11:38:12;;;;;;;3.65;1.73;;;22.30;99.90;;;;;;5052103;28;20056;-57
2023/09/13 11:40:46;;;;;;;3.20;2.03;;;22.40;99.90;;;;;;5049460;28;20057;-57
2023/09/13 11:43:12;;;;;;;4.45;1.70;;;23.20;99.90;;;;;;5051922;28;20143;-57
2023/09/13 11:45:39;;;;;;;3.22;1.42;;;22.20;99.90;;;;;;5048277;28;20063;-56
2023/09/13 11:48:07;;;;;;;10.02;1.58;;;21.90;99.90;;;;;;5035204;28;20052;-57
2023/09/13 11:50:43;;;;;;;3.80;1.50;;;22.10;99.90;;;;;;5030877;28;20083;-57
2023/09/13 11:53:19;;;;;;;2.15;1.35;;;22.00;99.90;;;;;;5029056;28;20205;-57
2023/09/13 11:55:54;;;;;;;3.20;1.20;;;22.00;99.90;;;;;;5050711;28;20057;-57
2023/09/13 11:58:24;;;;;;;3.13;1.30;;;22.10;99.90;;;;;;5053698;28;20064;-58
2023/09/13 12:00:55;;;;;;;2.08;1.17;;;22.30;99.90;;;;;;5042240;28;20060;-58
2023/09/13 12:03:24;;;;;;;4.57;1.42;;;22.80;99.90;;;;;;5052064;28;20091;-58
2023/09/13 12:05:50;;;;;;;4.50;1.40;;;22.60;99.90;;;;;;5048943;28;20131;-60
2023/09/13 12:10:50;;;;;;;;;;;22.60;99.90;;;;;;5047000;28;20804;-58
2023/09/13 12:13:17;;;;;;;3.95;1.33;;;22.40;99.90;;;;;;5051324;28;19925;-60
2023/09/13 12:16:02;;;;;;;6.28;1.35;;;21.80;99.90;;;;;;5051650;28;20068;-58
2023/09/13 12:18:30;;;;;;;7.60;2.03;;;21.70;99.90;;;;;;5026832;28;20086;-58
2023/09/13 12:20:58;;;;;;;4.45;1.45;;;22.10;99.90;;;;;;5033638;28;20131;-58
2023/09/13 12:23:25;;;;;;;9.85;1.80;;;22.60;99.90;;;;;;5049362;28;20048;-58
2023/09/13 12:25:52;;;;;;;7.03;2.15;;;21.70;99.90;;;;;;5051613;28;20060;-57
2023/09/13 12:30:46;;;;;;;3.83;1.30;;;21.00;99.90;;;;;;5047806;28;20134;-57
2023/09/13 12:33:12;;;;;;;6.47;2.00;;;20.80;99.90;;;;;;5050260;28;20069;-57
2023/09/13 12:35:39;;;;;;;5.55;1.83;;;20.50;99.90;;;;;;5012043;28;20067;-58
2023/09/13 12:38:06;;;;;;;5.43;1.42;;;19.90;99.90;;;;;;5052073;28;20060;-57
2023/09/13 12:40:32;;;;;;;5.20;1.80;;;19.40;99.90;;;;;;5046314;28;20057;-57
2023/09/13 12:42:58;;;;;;;4.15;1.65;;;19.20;99.90;;;;;;5051283;28;20063;-57
2023/09/13 12:45:30;;;;;;;3.80;1.50;;;19.00;99.90;;;;;;5050236;28;20435;-57
2023/09/13 12:47:56;;;;;;;3.83;1.70;;;19.20;99.90;;;;;;5037943;28;20057;-57
2023/09/13 12:50:25;;;;;;;6.40;1.40;;;19.10;99.90;;;;;;5052025;28;20067;-57
2023/09/13 12:52:51;;;;;;;3.92;1.70;;;19.10;99.90;;;;;;5050313;28;21155;-57
2023/09/13 12:55:17;;;;;;;5.55;1.55;;;19.00;99.90;;;;;;5052579;28;20122;-58
2023/09/13 12:57:43;;;;;;;3.63;1.00;;;19.10;99.90;;;;;;5049406;28;20076;-57
2023/09/13 13:00:12;;;;;;;7.53;1.60;;;19.10;99.90;;;;;;5035882;28;20060;-57
2023/09/13 13:02:39;;;;;;;4.35;1.63;;;19.30;99.90;;;;;;5030382;28;20057;-57
2023/09/13 13:05:05;;;;;;;5.50;1.30;;;19.40;99.90;;;;;;5048257;28;20053;-57
2023/09/13 13:07:33;;;;;;;9.52;2.00;;;19.50;99.90;;;;;;5049705;28;20063;-57
2023/09/13 13:10:04;;;;;;;4.57;1.27;;;19.40;99.90;;;;;;5048735;28;20126;-57